Time,TemperatureF,DewpointF,PressureIn,WindDirection,WindDirectionDegrees,WindSpeedMPH,WindSpeedGustMPH,Humidity,HourlyPrecipIn,Conditions,Clouds,dailyrainin,SoftwareType,DateUTC
2013-06-09 00:02:00,58.0,48.0,30.11,NNE,21,5.0,9.0,70,0.00,,,0.00,,2013-06-09 07:02:00,
2013-06-09 00:12:00,58.0,48.0,30.11,NNE,21,5.0,9.0,70,0.00,,,0.00,,2013-06-09 07:12:00,
2013-06-09 00:22:00,58.0,49.0,30.11,NNE,28,4.0,8.0,72,0.00,,,0.00,,2013-06-09 07:22:00,
2013-06-09 00:32:00,58.0,49.0,30.11,NNE,28,4.0,8.0,72,0.00,,,0.00,,2013-06-09 07:32:00,
2013-06-09 00:42:00,58.0,49.0,30.11,NNE,28,4.0,8.0,72,0.00,,,0.00,,2013-06-09 07:42:00,
2013-06-09 00:52:00,57.0,49.0,30.11,East,83,3.0,6.0,75,0.00,,,0.00,,2013-06-09 07:52:00,
2013-06-09 01:02:00,57.0,49.0,30.11,East,83,3.0,6.0,75,0.00,,,0.00,,2013-06-09 08:02:00,
2013-06-09 01:12:00,57.0,49.0,30.11,East,83,3.0,6.0,75,0.00,,,0.00,,2013-06-09 08:12:00,
2013-06-09 01:22:00,56.0,49.0,30.11,ENE,75,2.0,6.0,77,0.00,,,0.00,,2013-06-09 08:22:00,
2013-06-09 01:32:00,56.0,49.0,30.11,ENE,75,2.0,6.0,77,0.00,,,0.00,,2013-06-09 08:32:00,
2013-06-09 01:42:00,56.0,49.0,30.11,ENE,75,2.0,6.0,77,0.00,,,0.00,,2013-06-09 08:42:00,
2013-06-09 01:53:00,55.0,49.0,30.11,ENE,70,2.0,7.0,79,0.00,,,0.00,,2013-06-09 08:53:00,
2013-06-09 02:01:00,55.0,49.0,30.11,ENE,70,2.0,7.0,79,0.00,,,0.00,,2013-06-09 09:01:00,
2013-06-09 02:12:00,55.0,49.0,30.11,ENE,70,2.0,7.0,79,0.00,,,0.00,,2013-06-09 09:12:00,
2013-06-09 02:22:00,55.0,49.0,30.10,NE,50,4.0,7.0,80,0.00,,,0.00,,2013-06-09 09:22:00,
2013-06-09 02:32:00,55.0,49.0,30.10,NE,50,4.0,7.0,80,0.00,,,0.00,,2013-06-09 09:32:00,
2013-06-09 02:43:00,55.0,49.0,30.10,NE,50,4.0,7.0,80,0.00,,,0.00,,2013-06-09 09:43:00,
2013-06-09 02:52:00,54.0,48.0,30.10,East,82,4.0,7.0,81,0.00,,,0.00,,2013-06-09 09:52:00,
2013-06-09 03:03:00,54.0,48.0,30.10,East,82,4.0,7.0,81,0.00,,,0.00,,2013-06-09 10:03:00,
2013-06-09 03:12:00,54.0,48.0,30.10,East,82,4.0,7.0,81,0.00,,,0.00,,2013-06-09 10:12:00,
2013-06-09 03:22:00,54.0,49.0,30.10,NNE,32,4.0,7.0,82,0.00,,,0.00,,2013-06-09 10:22:00,
2013-06-09 03:32:00,54.0,49.0,30.10,NNE,32,4.0,7.0,82,0.00,,,0.00,,2013-06-09 10:32:00,
2013-06-09 03:43:00,54.0,49.0,30.10,NNE,32,4.0,7.0,82,0.00,,,0.00,,2013-06-09 10:43:00,
2013-06-09 03:52:00,54.0,49.0,30.10,ENE,78,4.0,8.0,83,0.00,,,0.00,,2013-06-09 10:52:00,
2013-06-09 04:02:00,54.0,49.0,30.10,ENE,78,4.0,8.0,83,0.00,,,0.00,,2013-06-09 11:02:00,
2013-06-09 04:12:00,54.0,49.0,30.10,ENE,78,4.0,8.0,83,0.00,,,0.00,,2013-06-09 11:12:00,
2013-06-09 04:22:00,53.0,48.0,30.09,NNE,32,1.0,4.0,83,0.00,,,0.00,,2013-06-09 11:22:00,
2013-06-09 04:32:00,53.0,48.0,30.09,NNE,32,1.0,4.0,83,0.00,,,0.00,,2013-06-09 11:32:00,
2013-06-09 04:42:00,53.0,48.0,30.09,NNE,32,1.0,4.0,83,0.00,,,0.00,,2013-06-09 11:42:00,
2013-06-09 04:52:00,52.0,48.0,30.10,NNE,16,3.0,5.0,85,0.00,,,0.00,,2013-06-09 11:52:00,
2013-06-09 05:02:00,52.0,48.0,30.10,NNE,16,3.0,5.0,85,0.00,,,0.00,,2013-06-09 12:02:00,
2013-06-09 05:12:00,52.0,48.0,30.10,NNE,16,3.0,5.0,85,0.00,,,0.00,,2013-06-09 12:12:00,
2013-06-09 05:22:00,52.0,48.0,30.11,NNE,25,3.0,7.0,85,0.00,,,0.00,,2013-06-09 12:22:00,
2013-06-09 05:32:00,52.0,48.0,30.11,NNE,25,3.0,7.0,85,0.00,,,0.00,,2013-06-09 12:32:00,
2013-06-09 05:42:00,52.0,48.0,30.11,NNE,25,3.0,7.0,85,0.00,,,0.00,,2013-06-09 12:42:00,
2013-06-09 05:52:00,52.0,48.0,30.11,ENE,75,3.0,6.0,85,0.00,,,0.00,,2013-06-09 12:52:00,
2013-06-09 06:02:00,52.0,48.0,30.11,ENE,75,3.0,6.0,85,0.00,,,0.00,,2013-06-09 13:02:00,
2013-06-09 06:12:00,52.0,48.0,30.11,ENE,75,3.0,6.0,85,0.00,,,0.00,,2013-06-09 13:12:00,
2013-06-09 06:22:00,52.0,48.0,30.11,ENE,77,2.0,5.0,86,0.00,,,0.00,,2013-06-09 13:22:00,
2013-06-09 06:32:00,52.0,48.0,30.11,ENE,77,2.0,5.0,86,0.00,,,0.00,,2013-06-09 13:32:00,
2013-06-09 06:42:00,52.0,48.0,30.11,ENE,77,2.0,5.0,86,0.00,,,0.00,,2013-06-09 13:42:00,
2013-06-09 06:52:00,52.0,48.0,30.10,ESE,121,3.0,5.0,85,0.00,,,0.00,,2013-06-09 13:52:00,
2013-06-09 07:02:00,52.0,48.0,30.10,ESE,121,3.0,5.0,85,0.00,,,0.00,,2013-06-09 14:02:00,
2013-06-09 07:12:00,52.0,48.0,30.10,ESE,121,3.0,5.0,85,0.00,,,0.00,,2013-06-09 14:12:00,
2013-06-09 07:22:00,52.0,47.0,30.11,East,87,5.0,7.0,84,0.00,,,0.00,,2013-06-09 14:22:00,
2013-06-09 07:32:00,52.0,47.0,30.11,East,87,5.0,7.0,84,0.00,,,0.00,,2013-06-09 14:32:00,
2013-06-09 07:43:00,52.0,47.0,30.11,East,87,5.0,7.0,84,0.00,,,0.00,,2013-06-09 14:43:00,
2013-06-09 07:52:00,52.0,47.0,30.11,East,100,2.0,5.0,84,0.00,,,0.00,,2013-06-09 14:52:00,
2013-06-09 08:02:00,52.0,47.0,30.11,East,100,2.0,5.0,84,0.00,,,0.00,,2013-06-09 15:02:00,
2013-06-09 08:12:00,52.0,47.0,30.11,East,100,2.0,5.0,84,0.00,,,0.00,,2013-06-09 15:12:00,
2013-06-09 08:22:00,53.0,48.0,30.11,NE,46,3.0,6.0,83,0.00,,,0.00,,2013-06-09 15:22:00,
2013-06-09 08:32:00,53.0,48.0,30.11,NE,46,3.0,6.0,83,0.00,,,0.00,,2013-06-09 15:32:00,
2013-06-09 08:43:00,53.0,48.0,30.11,NE,46,3.0,6.0,83,0.00,,,0.00,,2013-06-09 15:43:00,
2013-06-09 08:53:00,53.0,48.0,30.12,NNE,28,2.0,6.0,82,0.00,,,0.00,,2013-06-09 15:53:00,
2013-06-09 09:03:00,53.0,48.0,30.12,NNE,28,2.0,6.0,82,0.00,,,0.00,,2013-06-09 16:03:00,
2013-06-09 09:13:00,53.0,48.0,30.12,NNE,28,2.0,6.0,82,0.00,,,0.00,,2013-06-09 16:13:00,
2013-06-09 09:23:00,54.0,48.0,30.12,NNE,25,1.0,6.0,81,0.00,,,0.00,,2013-06-09 16:23:00,
2013-06-09 09:33:00,54.0,48.0,30.12,NNE,25,1.0,6.0,81,0.00,,,0.00,,2013-06-09 16:33:00,
2013-06-09 09:42:00,54.0,48.0,30.12,NNE,25,1.0,6.0,81,0.00,,,0.00,,2013-06-09 16:42:00,
2013-06-09 09:53:00,54.0,48.0,30.12,ENE,77,4.0,6.0,80,0.00,,,0.00,,2013-06-09 16:53:00,
2013-06-09 10:02:00,54.0,48.0,30.12,ENE,77,4.0,6.0,80,0.00,,,0.00,,2013-06-09 17:02:00,
2013-06-09 10:12:00,54.0,48.0,30.12,ENE,77,4.0,6.0,80,0.00,,,0.00,,2013-06-09 17:12:00,
2013-06-09 10:22:00,55.0,48.0,30.12,NNE,18,4.0,7.0,78,0.00,,,0.00,,2013-06-09 17:22:00,
2013-06-09 10:32:00,55.0,48.0,30.12,NNE,18,4.0,7.0,78,0.00,,,0.00,,2013-06-09 17:32:00,
2013-06-09 10:42:00,55.0,48.0,30.12,NNE,18,4.0,7.0,78,0.00,,,0.00,,2013-06-09 17:42:00,
2013-06-09 10:52:00,55.0,48.0,30.12,East,101,1.0,5.0,77,0.00,,,0.00,,2013-06-09 17:52:00,
2013-06-09 11:02:00,55.0,48.0,30.12,East,101,1.0,5.0,77,0.00,,,0.00,,2013-06-09 18:02:00,
2013-06-09 11:12:00,55.0,48.0,30.12,East,101,1.0,5.0,77,0.00,,,0.00,,2013-06-09 18:12:00,
2013-06-09 11:21:00,56.0,49.0,30.12,NNW,330,2.0,5.0,77,0.00,,,0.00,,2013-06-09 18:21:00,
2013-06-09 11:32:00,56.0,49.0,30.12,NNW,330,2.0,5.0,77,0.00,,,0.00,,2013-06-09 18:32:00,
2013-06-09 11:42:00,56.0,49.0,30.12,NNW,330,2.0,5.0,77,0.00,,,0.00,,2013-06-09 18:42:00,
2013-06-09 11:52:00,58.0,49.0,30.12,ESE,107,4.0,5.0,72,0.00,,,0.00,,2013-06-09 18:52:00,
2013-06-09 12:02:00,58.0,49.0,30.12,ESE,107,4.0,5.0,72,0.00,,,0.00,,2013-06-09 19:02:00,
2013-06-09 12:12:00,58.0,49.0,30.12,ESE,107,4.0,5.0,72,0.00,,,0.00,,2013-06-09 19:12:00,
2013-06-09 12:22:00,59.0,50.0,30.12,NE,51,4.0,6.0,71,0.00,,,0.00,,2013-06-09 19:22:00,
2013-06-09 12:32:00,59.0,50.0,30.12,NE,51,4.0,6.0,71,0.00,,,0.00,,2013-06-09 19:32:00,
2013-06-09 12:42:00,59.0,50.0,30.12,NE,51,4.0,6.0,71,0.00,,,0.00,,2013-06-09 19:42:00,
2013-06-09 12:52:00,60.0,50.0,30.11,ENE,78,0.0,6.0,69,0.00,,,0.00,,2013-06-09 19:52:00,
2013-06-09 13:02:00,60.0,50.0,30.11,ENE,78,0.0,6.0,69,0.00,,,0.00,,2013-06-09 20:02:00,
2013-06-09 13:12:00,60.0,50.0,30.11,ENE,78,0.0,6.0,69,0.00,,,0.00,,2013-06-09 20:12:00,
2013-06-09 13:22:00,59.0,50.0,30.11,WNW,289,3.0,8.0,72,0.00,,,0.00,,2013-06-09 20:22:00,
2013-06-09 13:32:00,59.0,50.0,30.11,WNW,289,3.0,8.0,72,0.00,,,0.00,,2013-06-09 20:32:00,
2013-06-09 13:42:00,59.0,50.0,30.11,WNW,289,3.0,8.0,72,0.00,,,0.00,,2013-06-09 20:42:00,
2013-06-09 13:52:00,61.0,51.0,30.10,West,259,5.0,8.0,69,0.00,,,0.00,,2013-06-09 20:52:00,
2013-06-09 14:02:00,61.0,51.0,30.10,West,259,5.0,8.0,69,0.00,,,0.00,,2013-06-09 21:02:00,
2013-06-09 14:12:00,61.0,50.0,30.09,NW,311,4.0,9.0,68,0.00,,,0.00,,2013-06-09 21:12:00,
2013-06-09 14:22:00,61.0,50.0,30.09,NW,311,4.0,9.0,68,0.00,,,0.00,,2013-06-09 21:22:00,
2013-06-09 14:33:00,61.0,50.0,30.09,NW,311,4.0,9.0,68,0.00,,,0.00,,2013-06-09 21:33:00,
2013-06-09 14:43:00,61.0,50.0,30.09,NW,311,4.0,9.0,68,0.00,,,0.00,,2013-06-09 21:43:00,
2013-06-09 14:53:00,63.0,50.0,30.08,SSW,212,4.0,9.0,62,0.00,,,0.00,,2013-06-09 21:53:00,
2013-06-09 15:02:00,63.0,50.0,30.08,SSW,212,4.0,9.0,62,0.00,,,0.00,,2013-06-09 22:02:00,
2013-06-09 15:12:00,62.0,49.0,30.08,WNW,290,6.0,11.0,63,0.00,,,0.00,,2013-06-09 22:12:00,
2013-06-09 15:22:00,62.0,49.0,30.08,WNW,290,6.0,11.0,63,0.00,,,0.00,,2013-06-09 22:22:00,
2013-06-09 15:32:00,62.0,49.0,30.08,WNW,290,6.0,11.0,63,0.00,,,0.00,,2013-06-09 22:32:00,
2013-06-09 15:42:00,62.0,49.0,30.08,WNW,290,6.0,11.0,63,0.00,,,0.00,,2013-06-09 22:42:00,
2013-06-09 15:52:00,61.0,49.0,30.07,SW,223,1.0,6.0,65,0.00,,,0.00,,2013-06-09 22:52:00,
2013-06-09 16:02:00,61.0,49.0,30.07,SW,223,1.0,6.0,65,0.00,,,0.00,,2013-06-09 23:02:00,
2013-06-09 16:12:00,62.0,50.0,30.06,NNW,330,3.0,7.0,64,0.00,,,0.00,,2013-06-09 23:12:00,
2013-06-09 16:22:00,62.0,50.0,30.06,NNW,330,3.0,7.0,64,0.00,,,0.00,,2013-06-09 23:22:00,
2013-06-09 16:32:00,62.0,50.0,30.06,NNW,330,3.0,7.0,64,0.00,,,0.00,,2013-06-09 23:32:00,
2013-06-09 16:43:00,62.0,50.0,30.06,NNW,330,3.0,7.0,64,0.00,,,0.00,,2013-06-09 23:43:00,
2013-06-09 16:52:00,63.0,50.0,30.06,NNW,336,4.0,8.0,63,0.00,,,0.00,,2013-06-09 23:52:00,
2013-06-09 17:01:00,63.0,50.0,30.06,NNW,336,4.0,8.0,63,0.00,,,0.00,,2013-06-10 00:01:00,
2013-06-09 17:12:00,63.0,50.0,30.06,NNW,336,4.0,8.0,63,0.00,,,0.00,,2013-06-10 00:12:00,
2013-06-09 17:22:00,64.0,50.0,30.05,North,349,3.0,11.0,61,0.00,,,0.00,,2013-06-10 00:22:00,
2013-06-09 17:32:00,64.0,50.0,30.05,North,349,3.0,11.0,61,0.00,,,0.00,,2013-06-10 00:32:00,
2013-06-09 17:42:00,64.0,50.0,30.05,North,349,3.0,11.0,61,0.00,,,0.00,,2013-06-10 00:42:00,
2013-06-09 17:52:00,65.0,50.0,30.04,NNE,19,4.0,7.0,59,0.00,,,0.00,,2013-06-10 00:52:00,
2013-06-09 18:02:00,65.0,50.0,30.04,NNE,19,4.0,7.0,59,0.00,,,0.00,,2013-06-10 01:02:00,
2013-06-09 18:12:00,65.0,50.0,30.04,NNE,19,4.0,7.0,59,0.00,,,0.00,,2013-06-10 01:12:00,
2013-06-09 18:22:00,63.0,49.0,30.03,NW,314,5.0,12.0,60,0.00,,,0.00,,2013-06-10 01:22:00,
2013-06-09 18:32:00,63.0,49.0,30.03,NW,314,5.0,12.0,60,0.00,,,0.00,,2013-06-10 01:32:00,
2013-06-09 18:43:00,63.0,49.0,30.03,NW,314,5.0,12.0,60,0.00,,,0.00,,2013-06-10 01:43:00,
2013-06-09 18:52:00,63.0,50.0,30.03,NNW,333,6.0,11.0,63,0.00,,,0.00,,2013-06-10 01:52:00,
2013-06-09 19:02:00,63.0,50.0,30.03,NNW,333,6.0,11.0,63,0.00,,,0.00,,2013-06-10 02:02:00,
2013-06-09 19:12:00,63.0,50.0,30.03,NNW,333,6.0,11.0,63,0.00,,,0.00,,2013-06-10 02:12:00,
2013-06-09 19:22:00,61.0,49.0,30.03,NNW,329,8.0,13.0,64,0.00,,,0.00,,2013-06-10 02:22:00,
2013-06-09 19:32:00,61.0,49.0,30.03,NNW,329,8.0,13.0,64,0.00,,,0.00,,2013-06-10 02:32:00,
2013-06-09 19:42:00,61.0,49.0,30.03,NNW,329,8.0,13.0,64,0.00,,,0.00,,2013-06-10 02:42:00,
2013-06-09 19:52:00,58.0,47.0,30.03,NNW,329,7.0,13.0,67,0.00,,,0.00,,2013-06-10 02:52:00,
2013-06-09 20:02:00,58.0,47.0,30.03,NNW,329,7.0,13.0,67,0.00,,,0.00,,2013-06-10 03:02:00,
2013-06-09 20:12:00,58.0,47.0,30.03,NNW,329,7.0,13.0,67,0.00,,,0.00,,2013-06-10 03:12:00,
2013-06-09 20:22:00,58.0,47.0,30.03,NNW,340,6.0,13.0,67,0.00,,,0.00,,2013-06-10 03:22:00,
2013-06-09 20:32:00,58.0,47.0,30.03,NNW,340,6.0,13.0,67,0.00,,,0.00,,2013-06-10 03:32:00,
2013-06-09 20:43:00,58.0,47.0,30.03,NNW,340,6.0,13.0,67,0.00,,,0.00,,2013-06-10 03:43:00,
2013-06-09 20:53:00,57.0,47.0,30.02,NNW,346,5.0,13.0,69,0.00,,,0.00,,2013-06-10 03:53:00,
2013-06-09 21:03:00,57.0,47.0,30.02,NNW,346,5.0,13.0,69,0.00,,,0.00,,2013-06-10 04:03:00,
2013-06-09 21:12:00,57.0,47.0,30.02,NNW,346,5.0,13.0,69,0.00,,,0.00,,2013-06-10 04:12:00,
2013-06-09 21:23:00,55.0,46.0,30.03,NW,318,5.0,9.0,72,0.00,,,0.00,,2013-06-10 04:23:00,
2013-06-09 21:33:00,55.0,46.0,30.03,NW,318,5.0,9.0,72,0.00,,,0.00,,2013-06-10 04:33:00,
2013-06-09 21:42:00,55.0,46.0,30.03,NW,318,5.0,9.0,72,0.00,,,0.00,,2013-06-10 04:42:00,
2013-06-09 21:52:00,54.0,46.0,30.03,NNW,337,3.0,7.0,74,0.00,,,0.00,,2013-06-10 04:52:00,
2013-06-09 22:02:00,54.0,46.0,30.03,NNW,337,3.0,7.0,74,0.00,,,0.00,,2013-06-10 05:02:00,
2013-06-09 22:12:00,54.0,46.0,30.03,NNW,337,3.0,7.0,74,0.00,,,0.00,,2013-06-10 05:12:00,
2013-06-09 22:22:00,53.0,45.0,30.04,NW,313,4.0,7.0,75,0.00,,,0.00,,2013-06-10 05:22:00,
2013-06-09 22:32:00,53.0,45.0,30.04,NW,313,4.0,7.0,75,0.00,,,0.00,,2013-06-10 05:32:00,
2013-06-09 22:42:00,53.0,45.0,30.04,NW,313,4.0,7.0,75,0.00,,,0.00,,2013-06-10 05:42:00,
2013-06-09 22:52:00,54.0,46.0,30.05,NE,46,5.0,9.0,74,0.00,,,0.00,,2013-06-10 05:52:00,
2013-06-09 23:01:00,54.0,46.0,30.05,NE,46,5.0,9.0,74,0.00,,,0.00,,2013-06-10 06:01:00,
2013-06-09 23:12:00,54.0,46.0,30.05,NE,46,5.0,9.0,74,0.00,,,0.00,,2013-06-10 06:12:00,
2013-06-09 23:22:00,54.0,46.0,30.04,NNW,335,3.0,6.0,75,0.00,,,0.00,,2013-06-10 06:22:00,
2013-06-09 23:32:00,54.0,46.0,30.04,NNW,335,3.0,6.0,75,0.00,,,0.00,,2013-06-10 06:32:00,
2013-06-09 23:42:00,54.0,46.0,30.04,NNW,335,3.0,6.0,75,0.00,,,0.00,,2013-06-10 06:42:00,
2013-06-09 23:52:00,54.0,46.0,30.04,NNE,21,2.0,5.0,75,0.00,,,0.00,,2013-06-10 06:52:00,